Alread, Arkansas
Current Conditions -  °F | °C
As of 9:55 PM on Sunday 23 Nov 2014 (Local Time) from KCCA Reporting Station
Overcast Overcast  
Wind Chill: 61°   Ceiling: 800
Heat Index: 61°   Visibility: 8mi
Dew Point: 59°   Wind: 5mph
Humidity: 94%   Direction: 200°SSW
Pressure: 29.36"   Gusts: NA
Location:  35.6269°N, 92.5508°W
Report Text: KCCA 240355Z AUTO 20004KT 8SM OVC008 16/15 A2936 RMK AO2
Loading
Personal Weather Stations






























Interactive Weather Map New forecast layout! Learn more

10-Day Weather Forecast

Advertisements
Track Severe Weather on mobile